Aeroporto :
LOGIN :

Iscrizione | Disclaimer

   EN    FR    IT 

 










Sommario :    VFR   VFR Marginale   IFR   IFR Intensivo   IFR Molto Intensivo
Visibilità : 
Base nubi : 
>= 8 km
>= 3000ft
5 / 8 km
1000 / 3000 ft
1500m / 5 km
500 / 1000 ft
800 / 1500m
200 / 500 ft
< 800m
< 200 ft
Simboli :   Temporali  Nebbia  Neve Forte  Precipitazioni Forti  Vento > 20 kt
SIGMETs :   Varie  Temporali  Ghiacco  Turbolenza  Onda orograficha  Ceneri Vulcaniche






- Altitudine del aeroporto : 236 ft
- Codice IATA : MMX


ESMS - Malmö Sturup

ULTIMO METAR :
  • 280020Z 24004KT CAVOK M01/M01 Q1001

METARs OBSOLETI :
  • 272350Z 23002KT 5000 BR SCT051 M01/M01 Q1000
  • 272320Z VRB04KT CAVOK M00/M01 Q1000
  • 272250Z 00000KT CAVOK 01/M00 Q1000
  • 272220Z 00000KT CAVOK 01/M00 Q0999
  • 272150Z 23002KT 9999 BKN049 01/M00 Q0999

TAF TAF ESMS
Valido dal 28 a 00 ore il 29 a 00 ore UTC


272316Z 2800/2824 VRB03KT 9999 SCT020
PROB40 2800/2804 0300 FZFG OVC001
TEMPO 2804/2807 1800 SHSNRA BKN004 BKN015CB
BECMG 2807/2809 28013KT
TEMPO 2807/2818 -SHRASN BKN010 SCT020CB
BECMG 2822/2824 20010KT



MetMap, La meteo Aeronautica in un colpo d'occhio ! - Copyright ORBIFLY Dicembre 2007 - Disclaimer

ORBIFLY MET'MAP TEAM :

Programmazione e sviluppo : Alexandra Zaïnal
Concezione : Baudouin d'Aumeries
Aiuto per la programmazione : Marc-Olivier Méhu
Supporto tecnico e logistico : Manuel Goepfert
Aiuto per la traduzione : Arnaldo La Scala

Contatto : metmap@orbifly.com




FONTI E CREDITI :

   NOAA